Terminal Aerodrome Forecast
Issued by NWS

Home | Current Version | Previous Version | Graphics & Text | Print | Product List | Glossary On
Versions: 1 2 3 4 5 6 7 8 9 10 11 12 13 14 15
795
FTUS43 KMPX 031741
TAFRWF
TAF
KRWF 031741Z 0318/0418 15009KT P6SM SCT040 BKN100
     FM040000 16010KT 5SM -SN OVC022
     FM040400 16010KT P6SM OVC015
     FM041500 22010KT P6SM OVC018=

USA.gov is the U.S. government's official web portal to all federal, state and local government web resources and services.